Latest Weather Observations for Kuitpo

IDS60901

Issued at 6:01 pm CDT Tuesday 21 February 2017 (issued every 10 minutes, with the page automatically refreshed every 10 minutes)

About weather observations | Map of Adelaide area stations | Latest observations for Adelaide area | Other Formats
Station Details ID: 023887 Name: KUITPO FOREST RESERVE Lat: -35.17 Lon: 138.68 Height: 365.0 m
Data from the previous 72 hours. | See also: Recent months at Kuitpo
Date/Time
CDT
Temp
°C
App
Temp
°C
Dew
Point
°C
Rel
Hum
%
Delta-T
°C
Wind Press
QNH
hPa
Press
MSL
hPa
Rain since
9am
mm
Dir  Spd
km/h
Gust
km/h
Spd
kts
Gust
kts
21/06:00pm 26.9 25.3 8.8 32 10.0 WNW 7 9 4 5 1012.6 1011.3 -
21/05:30pm 26.8 24.4 8.7 32 10.0 W 11 17 6 9 1012.9 1011.6 0.0
21/05:00pm 26.7 25.1 8.6 32 10.0 ENE 7 17 4 9 1013.1 1011.8 0.0
21/04:30pm 26.4 24.0 8.8 33 9.7 NE 11 20 6 11 1013.6 1012.2 0.0
21/04:00pm 25.4 23.4 7.1 31 9.8 WNW 7 20 4 11 1014.0 1012.6 0.0
21/03:30pm 25.7 22.7 7.8 32 9.7 NNE 13 22 7 12 1014.6 1013.3 0.0
21/03:00pm 25.9 23.4 8.0 32 9.7 NE 11 22 6 12 1015.1 1013.8 0.0
21/02:30pm 25.4 22.9 8.4 34 9.3 NNW 11 17 6 9 1015.7 1014.4 0.0
21/02:00pm 23.9 21.0 6.7 33 9.0 NNW 11 20 6 11 1016.0 1014.7 0.0
21/01:30pm 24.5 22.0 8.0 35 8.9 NNW 11 19 6 10 1016.3 1014.9 0.0
21/01:00pm 24.1 21.6 8.1 36 8.6 NW 11 19 6 10 1016.7 1015.3 0.0
21/12:30pm 22.6 19.7 8.0 39 7.8 NNW 13 20 7 11 1017.0 1015.7 0.0
21/12:00pm 22.6 20.2 8.7 41 7.5 NNW 11 19 6 10 1017.5 1016.2 0.0
21/11:30am 21.9 18.8 7.3 39 7.7 NW 13 22 7 12 1018.0 1016.7 0.0
21/11:00am 20.0 18.2 8.0 46 6.3 NNW 7 17 4 9 1018.0 1016.7 0.0
21/10:30am 19.4 17.3 8.4 49 5.8 NE 9 13 5 7 1018.1 1016.8 0.0
21/10:00am 17.9 15.3 9.3 57 4.6 NE 13 22 7 12 1018.1 1016.8 0.0
21/09:30am 15.8 11.8 8.1 60 3.9 NE 19 30 10 16 1018.0 1016.7 0.0
21/09:00am 14.1 9.9 7.4 64 3.3 NE 19 28 10 15 1018.3 1017.0 0.0
21/08:30am 12.5 8.3 7.4 71 2.5 NE 19 24 10 13 1018.2 1016.9 0.0
21/08:00am 11.1 6.5 6.5 73 2.2 ENE 20 26 11 14 1018.0 1016.7 0.0
21/07:30am 10.1 5.5 6.6 79 1.7 ENE 20 28 11 15 1017.7 1016.4 0.0
21/07:00am 9.4 4.5 6.8 84 1.2 ENE 22 28 12 15 1017.2 1015.9 0.0
21/06:30am 9.4 5.0 7.2 86 1.1 NE 20 26 11 14 1017.4 1016.1 0.0
21/06:00am 9.4 5.0 7.5 88 0.9 ENE 20 26 11 14 1017.1 1015.8 0.0
21/05:30am 9.5 5.3 7.4 87 1.0 ENE 19 24 10 13 1017.1 1015.8 0.0
21/05:00am 9.9 6.5 7.7 86 1.1 ENE 15 20 8 11 1017.2 1015.9 0.0
21/04:30am 10.0 5.6 7.6 85 1.2 ENE 20 26 11 14 1017.2 1015.9 0.0
21/04:00am 9.7 5.3 7.5 86 1.1 ENE 20 26 11 14 1017.1 1015.8 0.0
21/03:30am 10.3 6.5 7.7 84 1.3 ENE 17 24 9 13 1017.2 1015.9 0.0
21/03:00am 10.6 6.5 7.7 82 1.4 ENE 19 24 10 13 1017.3 1016.0 0.0
21/02:30am 10.5 6.3 7.6 82 1.4 E 19 24 10 13 1017.5 1016.2 0.0
21/02:00am 10.6 6.8 7.5 81 1.5 E 17 22 9 12 1017.9 1016.6 0.0
21/01:30am 10.7 6.3 7.4 80 1.6 E 20 24 11 13 1017.7 1016.4 0.0
21/01:00am 10.7 6.3 7.6 81 1.5 E 20 24 11 13 1017.8 1016.5 0.0
21/12:30am 10.8 6.7 7.7 81 1.5 E 19 24 10 13 1018.2 1016.9 0.0
21/12:00am 10.9 6.8 7.8 81 1.5 E 19 20 10 11 1018.6 1017.3 0.0
 
Date/Time
CDT
Temp
°C
App
Temp
°C
Dew
Point
°C
Rel
Hum
%
Delta-T
°C
Wind Press
QNH
hPa
Press
MSL
hPa
Rain since
9am
mm
Dir  Spd
km/h
Gust
km/h
Spd
kts
Gust
kts
20/11:30pm 10.8 7.0 7.5 80 1.6 ESE 17 20 9 11 1018.6 1017.3 0.0
20/11:00pm 10.9 7.0 7.0 77 1.9 ESE 17 22 9 12 1018.7 1017.4 0.0
20/10:30pm 10.8 7.2 6.6 75 2.0 ESE 15 20 8 11 1018.8 1017.5 0.0
20/10:00pm 11.2 8.0 6.7 74 2.2 SE 13 17 7 9 1018.5 1017.2 0.0
20/09:30pm 11.2 7.5 6.5 73 2.3 SE 15 24 8 13 1018.4 1017.1 0.0
20/09:00pm 11.7 8.1 6.6 71 2.5 SE 15 22 8 12 1018.1 1016.8 0.0
20/08:30pm 12.1 8.5 6.6 69 2.7 SE 15 24 8 13 1018.0 1016.7 0.0
20/08:00pm 12.9 9.3 6.7 66 3.0 SSE 15 22 8 12 1017.9 1016.6 0.0
20/07:30pm 13.8 10.3 7.1 64 3.3 SE 15 24 8 13 1017.4 1016.1 0.0
20/07:00pm 14.9 11.9 7.7 62 3.6 SSE 13 19 7 10 1016.9 1015.5 0.0
20/06:30pm 15.7 12.7 7.5 58 4.2 SSE 13 20 7 11 1016.8 1015.4 0.0
20/06:00pm 16.2 13.2 7.7 57 4.3 SE 13 20 7 11 1016.5 1015.1 0.0
20/05:30pm 16.8 13.8 7.7 55 4.7 SSE 13 28 7 15 1016.4 1015.0 0.0
20/05:00pm 17.7 15.2 8.0 53 5.0 S 11 19 6 10 1016.4 1015.0 0.0
20/04:30pm 16.9 14.5 8.8 59 4.2 S 11 17 6 9 1016.3 1014.9 0.0
20/04:00pm 17.2 14.9 8.9 58 4.4 S 11 20 6 11 1016.4 1015.0 0.0
20/03:30pm 18.0 15.1 8.3 53 5.1 WSW 13 20 7 11 1016.4 1015.0 0.0
20/03:00pm 19.1 15.7 9.3 53 5.3 WSW 17 24 9 13 1016.5 1015.1 0.0
20/02:30pm 18.9 16.4 8.3 50 5.6 SW 11 19 6 10 1016.7 1015.3 0.0
20/02:00pm 17.8 15.8 8.6 55 4.8 S 9 15 5 8 1017.0 1015.7 0.0
20/01:30pm 16.2 13.3 6.6 53 4.8 SW 11 20 6 11 1017.1 1015.8 0.0
20/01:00pm 17.0 13.9 7.1 52 5.0 WSW 13 22 7 12 1017.2 1015.9 0.0
20/12:30pm 16.0 13.6 7.2 56 4.4 WSW 9 13 5 7 1017.4 1016.1 0.0
20/12:00pm 15.2 12.2 6.2 55 4.4 SSW 11 20 6 11 1017.5 1016.2 0.0
20/11:30am 15.0 13.2 7.1 59 3.9 S 6 15 3 8 1017.7 1016.4 0.0
20/11:00am 15.3 13.0 7.3 59 4.0 S 9 17 5 9 1017.9 1016.6 0.0
20/10:30am 14.9 12.3 7.7 62 3.6 S 11 22 6 12 1018.0 1016.7 0.0
20/10:00am 14.9 12.3 7.7 62 3.6 S 11 15 6 8 1017.9 1016.6 0.0
20/09:30am 13.7 10.9 7.0 64 3.3 SSE 11 19 6 10 1017.7 1016.4 0.0
20/09:00am 13.4 10.3 7.4 67 3.0 SSE 13 20 7 11 1017.4 1016.1 0.8
20/08:30am 12.9 10.8 8.4 74 2.3 SE 9 17 5 9 1017.3 1016.0 0.8
20/08:00am 12.1 9.6 8.4 78 1.9 SSE 11 20 6 11 1017.1 1015.8 0.8
20/07:30am 10.8 8.3 8.4 85 1.2 SSE 11 17 6 9 1016.6 1015.2 0.8
20/07:00am 10.8 8.7 8.4 85 1.2 SE 9 15 5 8 1016.3 1014.9 0.8
20/06:30am 10.7 9.2 9.0 89 0.9 SE 7 11 4 6 1016.2 1014.8 0.8
20/06:00am 10.8 9.5 9.1 89 0.9 SE 6 11 3 6 1015.8 1014.5 0.8
20/05:30am 10.7 10.2 9.5 92 0.6 S 2 6 1 3 1015.7 1014.4 0.8
20/05:00am 11.0 9.6 9.6 91 0.7 SSE 7 11 4 6 1015.4 1014.1 0.8
20/04:30am 10.7 9.4 9.8 94 0.5 SE 7 11 4 6 1015.2 1013.9 0.8
20/04:00am 10.7 8.9 9.6 93 0.6 S 9 15 5 8 1015.3 1014.0 0.8
20/03:30am 10.5 9.1 9.6 94 0.5 SW 7 9 4 5 1015.5 1014.2 0.8
20/03:00am 10.2 8.7 9.3 94 0.5 SW 7 9 4 5 1015.4 1014.1 0.8
20/02:30am 10.4 9.2 9.5 94 0.5 SSW 6 9 3 5 1015.5 1014.2 0.8
20/02:00am 10.2 8.7 9.1 93 0.6 SW 7 11 4 6 1015.5 1014.2 0.8
20/01:30am 10.8 8.7 9.6 92 0.6 SSW 11 19 6 10 1015.6 1014.3 0.8
20/01:00am 10.7 7.4 9.5 92 0.6 S 17 30 9 16 1015.7 1014.4 0.8
20/12:30am 10.7 9.0 9.8 94 0.5 S 9 13 5 7 1015.8 1014.5 0.8
20/12:00am 10.7 8.2 9.8 94 0.5 SSW 13 17 7 9 1015.8 1014.5 0.8
 
Date/Time
CDT
Temp
°C
App
Temp
°C
Dew
Point
°C
Rel
Hum
%
Delta-T
°C
Wind Press
QNH
hPa
Press
MSL
hPa
Rain since
9am
mm
Dir  Spd
km/h
Gust
km/h
Spd
kts
Gust
kts
19/11:30pm 11.0 9.0 10.2 95 0.4 SSW 11 15 6 8 1016.0 1014.7 0.6
19/11:00pm 11.2 10.0 10.3 94 0.5 W 7 9 4 5 1016.4 1015.0 0.6
19/10:30pm 11.7 9.6 9.8 88 1.0 SW 11 17 6 9 1016.5 1015.1 0.6
19/10:00pm 11.7 9.5 9.3 85 1.2 SSW 11 17 6 9 1016.3 1014.9 0.6
19/09:30pm 12.0 9.2 8.7 80 1.7 SSW 13 20 7 11 1015.9 1014.6 0.6
19/09:00pm 12.5 10.0 8.2 75 2.2 SW 11 17 6 9 1015.6 1014.3 0.6
19/08:30pm 12.5 9.7 8.6 77 2.0 SW 13 20 7 11 1015.6 1014.3 0.6
19/08:00pm 12.7 8.9 9.0 78 1.9 SSW 19 30 10 16 1015.4 1014.1 0.6
19/07:30pm 13.0 10.6 10.0 82 1.6 SSW 13 26 7 14 1015.2 1013.9 0.6
19/07:00pm 13.8 10.4 9.3 74 2.3 SW 17 26 9 14 1014.9 1013.6 0.6
19/06:30pm 14.0 11.5 9.6 75 2.3 SSW 13 24 7 13 1014.8 1013.5 0.6
19/06:00pm 15.0 11.7 9.4 69 2.9 SW 17 32 9 17 1014.6 1013.3 0.6
19/05:30pm 14.7 11.9 10.1 74 2.4 SW 15 26 8 14 1014.7 1013.4 0.6
19/05:00pm 14.8 11.6 10.0 73 2.5 SSW 17 30 9 16 1014.8 1013.5 0.6
19/04:30pm 14.3 9.8 10.1 76 2.2 WSW 24 44 13 24 1014.6 1013.3 0.6
19/04:00pm 17.1 12.8 10.7 66 3.5 WSW 24 39 13 21 1014.5 1013.1 0.6
19/03:30pm 16.1 11.4 9.1 63 3.7 WSW 24 39 13 21 1014.7 1013.4 0.6
19/03:00pm 14.6 12.3 10.6 77 2.1 WSW 13 24 7 13 1015.0 1013.7 0.6
19/02:30pm 13.3 11.1 12.0 92 0.7 SW 15 24 8 13 1015.3 1014.0 0.6
19/02:11pm 12.7 7.5 10.1 84 1.4 WSW 28 50 15 27 1015.3 1014.0 0.2
19/02:00pm 16.4 12.8 10.7 69 3.1 WSW 20 32 11 17 1015.2 1013.9 0.2
19/01:30pm 13.7 10.2 10.9 83 1.5 WSW 20 32 11 17 1015.6 1014.3 0.2
19/01:00pm 14.1 9.9 9.9 76 2.2 WSW 22 35 12 19 1015.6 1014.3 0.2
19/12:30pm 14.8 11.7 10.4 75 2.3 WSW 17 30 9 16 1015.7 1014.4 0.0
19/12:00pm 13.1 7.7 9.5 79 1.9 WSW 28 43 15 23 1016.0 1014.7 0.0
19/11:30am 15.0 10.6 7.5 61 3.8 WSW 20 39 11 21 1015.9 1014.6 0.0
19/11:00am 14.9 10.9 9.1 68 3.0 WSW 20 37 11 20 1016.0 1014.7 0.0
19/10:30am 13.8 10.4 9.0 73 2.5 WSW 17 28 9 15 1016.2 1014.8 0.0
19/10:00am 13.5 10.0 8.6 72 2.5 WSW 17 28 9 15 1016.0 1014.7 0.0
19/09:30am 12.9 9.4 8.6 75 2.2 SSW 17 26 9 14 1016.0 1014.7 0.0
19/09:00am 12.9 9.2 8.0 72 2.5 SW 17 32 9 17 1015.8 1014.5 1.0
19/08:30am 12.1 9.4 8.9 81 1.6 SW 13 20 7 11 1015.6 1014.3 1.0
19/08:00am 11.4 8.7 9.0 85 1.2 WSW 13 20 7 11 1015.5 1014.2 1.0
19/07:30am 11.1 7.5 8.5 84 1.3 SW 17 24 9 13 1015.3 1014.0 1.0
19/07:00am 10.5 7.5 7.7 83 1.4 WSW 13 20 7 11 1015.2 1013.9 1.0
19/06:30am 10.5 7.1 7.6 82 1.4 SW 15 24 8 13 1014.9 1013.6 1.0
19/06:00am 10.6 7.9 7.3 80 1.6 SW 11 17 6 9 1014.8 1013.5 1.0
19/05:30am 10.9 8.0 8.3 84 1.3 SW 13 22 7 12 1014.7 1013.4 1.0
19/05:00am 10.7 8.2 8.1 84 1.3 SW 11 20 6 11 1014.8 1013.5 1.0
19/04:30am 10.3 8.1 7.9 85 1.2 SW 9 13 5 7 1014.9 1013.6 1.0
19/04:00am 10.8 7.0 7.7 81 1.5 SSW 17 30 9 16 1015.0 1013.7 1.0
19/03:30am 10.6 8.0 7.8 83 1.4 WSW 11 17 6 9 1014.9 1013.6 1.0
19/03:00am 10.7 7.7 7.6 81 1.5 SW 13 26 7 14 1015.0 1013.7 1.0
19/02:30am 10.5 8.7 7.2 80 1.6 W 6 9 3 5 1015.3 1014.0 1.0
19/02:00am 10.9 8.2 7.2 78 1.8 SW 11 19 6 10 1015.6 1014.3 1.0
19/01:30am 10.8 8.3 6.7 76 2.0 WSW 9 15 5 8 1015.8 1014.5 1.0
19/01:00am 11.0 7.4 6.6 74 2.1 SSW 15 20 8 11 1016.0 1014.7 1.0
19/12:30am 10.5 6.7 7.7 83 1.4 SW 17 28 9 15 1016.4 1015.0 1.0
19/12:00am 10.2 6.7 7.3 82 1.4 SW 15 20 8 11 1016.2 1014.8 1.0
 
Date/Time
CDT
Temp
°C
App
Temp
°C
Dew
Point
°C
Rel
Hum
%
Delta-T
°C
Wind Press
QNH
hPa
Press
MSL
hPa
Rain since
9am
mm
Dir  Spd
km/h
Gust
km/h
Spd
kts
Gust
kts
18/11:30pm 10.1 7.5 7.7 85 1.2 SW 11 17 6 9 1016.2 1014.8 1.0
18/11:00pm 10.1 6.0 7.7 85 1.2 SSW 19 32 10 17 1016.4 1015.0 1.0
18/10:30pm 10.8 8.0 7.1 78 1.8 SW 11 19 6 10 1016.3 1014.9 1.0
18/10:00pm 10.5 8.6 7.7 83 1.4 SSW 7 13 4 7 1016.3 1014.9 1.0
18/09:30pm 11.1 8.1 7.6 79 1.7 SSW 13 20 7 11 1016.0 1014.7 1.0
18/09:00pm 11.1 7.2 7.0 76 2.0 SSW 17 28 9 15 1016.0 1014.7 1.0
18/08:30pm 11.4 8.1 6.5 72 2.4 SSW 13 17 7 9 1015.7 1014.4 1.0
18/08:00pm 11.9 8.3 6.6 70 2.6 SSW 15 20 8 11 1015.5 1014.2 1.0
18/07:30pm 12.6 8.2 6.6 67 2.9 SSW 19 28 10 15 1015.1 1013.8 1.0
18/07:00pm 13.4 9.0 6.5 63 3.4 SSW 19 26 10 14 1014.7 1013.4 1.0
18/06:30pm 14.3 9.6 6.2 58 4.0 SSW 20 30 11 16 1014.5 1013.1 1.0

Latest Capital City Observations: Canberra | Sydney | Melbourne | Brisbane | Adelaide | Perth | Hobart | Darwin

Other Formats:

Comma delimited format used in spreadsheet applications
http://www.bom.gov.au/fwo/IDS60901/IDS60901.94683.axf

JavaScript Object Notation format (JSON) in row-major order
http://www.bom.gov.au/fwo/IDS60901/IDS60901.94683.json